createdAt,value
2019-03-15T00:01:59.028Z,15.27
2019-03-15T00:05:04.724Z,12.50
2019-03-15T00:08:10.141Z,14.13
2019-03-15T00:11:18.235Z,14.17
2019-03-15T00:14:23.545Z,9.97
2019-03-15T00:17:29.964Z,17.10
2019-03-15T00:20:35.291Z,14.30
2019-03-15T00:23:40.574Z,17.43
2019-03-15T00:26:46.265Z,19.33
2019-03-15T00:29:51.590Z,16.47
2019-03-15T00:32:56.855Z,32.87
2019-03-15T00:36:02.181Z,12.90
2019-03-15T00:39:07.694Z,16.87
2019-03-15T00:42:12.988Z,15.23
2019-03-15T00:45:18.323Z,13.57
2019-03-15T00:48:23.560Z,15.23
2019-03-15T00:51:28.794Z,19.50
2019-03-15T00:54:34.128Z,16.07
2019-03-15T00:57:39.485Z,14.77
2019-03-15T01:00:44.881Z,15.57
2019-03-15T01:03:50.353Z,20.30
2019-03-15T01:06:57.189Z,12.57
2019-03-15T01:10:03.968Z,15.30
2019-03-15T01:13:09.178Z,15.63
2019-03-15T01:16:18.350Z,17.90
2019-03-15T01:19:23.621Z,13.60
2019-03-15T01:22:28.920Z,22.17
2019-03-15T01:25:34.185Z,19.93
2019-03-15T01:28:39.545Z,16.83
2019-03-15T01:31:44.996Z,17.17
2019-03-15T01:34:51.329Z,25.17
2019-03-15T01:37:56.619Z,13.53
2019-03-15T01:41:01.816Z,19.37
2019-03-15T01:44:08.084Z,17.50
2019-03-15T01:47:13.323Z,18.77
2019-03-15T01:50:18.653Z,16.53
2019-03-15T01:53:25.563Z,12.73
2019-03-15T01:56:32.248Z,19.17
2019-03-15T01:59:37.486Z,15.33
2019-03-15T02:02:42.766Z,18.53
2019-03-15T02:05:48.044Z,22.40
2019-03-15T02:08:53.307Z,18.83
2019-03-15T02:11:58.630Z,17.23
2019-03-15T02:15:04.211Z,18.43
2019-03-15T02:18:10.493Z,17.30
2019-03-15T02:21:15.799Z,19.10
2019-03-15T02:24:21.165Z,19.10
2019-03-15T02:27:26.525Z,18.50
2019-03-15T02:30:31.754Z,21.53
2019-03-15T02:33:37.026Z,27.00
2019-03-15T02:36:42.365Z,19.63
2019-03-15T02:39:47.608Z,20.83
2019-03-15T02:42:53.250Z,14.90
2019-03-15T02:45:59.674Z,20.67
2019-03-15T02:49:04.931Z,20.93
2019-03-15T02:52:11.752Z,26.97
2019-03-15T02:55:18.171Z,17.80
2019-03-15T02:58:23.455Z,22.17
2019-03-15T03:01:28.761Z,21.20
2019-03-15T03:04:34.050Z,24.17
2019-03-15T03:07:39.321Z,17.43
2019-03-15T03:10:44.696Z,18.50
2019-03-15T03:13:50.229Z,16.43
2019-03-15T03:16:55.526Z,21.30
2019-03-15T03:20:00.849Z,23.77
2019-03-15T03:23:06.200Z,12.53
2019-03-15T03:26:12.665Z,25.80
2019-03-15T03:29:19.941Z,20.93
2019-03-15T03:32:25.633Z,21.17
2019-03-15T03:35:31.010Z,18.17
2019-03-15T03:38:36.394Z,29.20
2019-03-15T03:41:41.644Z,21.83
2019-03-15T03:44:46.939Z,13.13
2019-03-15T03:47:53.936Z,17.80
2019-03-15T03:51:00.249Z,22.00
2019-03-15T03:54:05.813Z,14.80
2019-03-15T03:57:11.086Z,30.83
2019-03-15T04:00:16.424Z,20.03
2019-03-15T04:03:21.930Z,16.00
2019-03-15T04:06:28.068Z,10.30
2019-03-15T04:09:34.308Z,20.03
2019-03-15T04:12:39.650Z,18.60
2019-03-15T04:15:44.930Z,22.53
2019-03-15T04:18:50.349Z,18.93
2019-03-15T04:21:55.604Z,15.47
2019-03-15T04:25:01.119Z,21.90
2019-03-15T04:28:06.400Z,17.60
2019-03-15T04:31:11.755Z,21.70
2019-03-15T04:34:17.074Z,10.97
2019-03-15T04:37:22.916Z,10.70
2019-03-15T04:40:29.563Z,16.93
2019-03-15T04:43:34.849Z,17.53
2019-03-15T04:46:40.256Z,14.77
2019-03-15T04:49:45.568Z,20.20
2019-03-15T04:52:53.349Z,21.43
2019-03-15T04:55:57.923Z,15.30
2019-03-15T04:59:03.275Z,23.53
2019-03-15T05:02:08.686Z,18.20
2019-03-15T05:05:14.070Z,12.57
2019-03-15T05:08:19.325Z,15.87
2019-03-15T05:11:24.658Z,14.47
2019-03-15T05:14:30.030Z,16.27
2019-03-15T05:17:36.054Z,14.67
2019-03-15T05:20:41.544Z,16.73
2019-03-15T05:23:46.837Z,11.23
2019-03-15T05:26:52.150Z,22.10
2019-03-15T05:29:57.415Z,18.00
2019-03-15T05:33:02.717Z,20.87
2019-03-15T05:36:08.054Z,23.10
2019-03-15T05:39:13.404Z,20.00
2019-03-15T05:42:18.753Z,14.03
2019-03-15T05:45:24.054Z,21.93
2019-03-15T05:48:29.423Z,14.50
2019-03-15T05:51:37.934Z,22.20
2019-03-15T05:54:43.238Z,19.87
2019-03-15T05:57:48.517Z,11.23
2019-03-15T06:00:53.838Z,14.97
2019-03-15T06:03:59.074Z,22.57
2019-03-15T06:07:04.334Z,19.90
2019-03-15T06:10:09.993Z,13.67
2019-03-15T06:13:15.284Z,19.73
2019-03-15T06:16:20.618Z,20.13
2019-03-15T06:19:25.872Z,21.10
2019-03-15T06:22:31.127Z,19.73
2019-03-15T06:25:36.396Z,13.53
2019-03-15T06:28:41.720Z,15.77
2019-03-15T06:31:46.967Z,14.80
2019-03-15T06:34:52.252Z,16.13
2019-03-15T06:37:57.527Z,14.63
2019-03-15T06:41:04.248Z,20.33
2019-03-15T06:44:12.038Z,15.07
2019-03-15T06:47:17.260Z,12.90
2019-03-15T06:50:25.583Z,12.17
2019-03-15T06:53:30.809Z,11.57
2019-03-15T06:56:37.134Z,20.30
2019-03-15T06:59:42.339Z,14.27
2019-03-15T07:02:47.614Z,15.07
2019-03-15T07:05:52.863Z,23.33
2019-03-15T07:08:58.089Z,16.23
2019-03-15T07:12:09.273Z,17.33
2019-03-15T07:15:10.559Z,18.03
2019-03-15T07:18:18.632Z,15.50
2019-03-15T07:21:22.962Z,22.57
2019-03-15T07:24:28.242Z,18.23
2019-03-15T07:27:33.679Z,15.03
2019-03-15T07:30:42.193Z,26.13
2019-03-15T07:33:47.415Z,15.17
2019-03-15T07:36:55.173Z,18.93
2019-03-15T07:39:59.623Z,14.37
2019-03-15T07:43:05.458Z,14.53
2019-03-15T07:46:10.922Z,16.73
2019-03-15T07:49:16.228Z,17.17
2019-03-15T07:52:21.517Z,15.93
2019-03-15T07:55:26.745Z,17.83
2019-03-15T07:58:32.004Z,15.70
2019-03-15T08:01:52.572Z,21.03
2019-03-15T08:04:56.201Z,12.37
2019-03-15T08:08:01.469Z,17.43
2019-03-15T08:11:06.766Z,19.50
2019-03-15T08:14:12.051Z,18.10
2019-03-15T08:17:17.330Z,20.83
2019-03-15T08:20:22.607Z,18.40
2019-03-15T08:23:27.902Z,24.77
2019-03-15T08:26:33.138Z,20.17
2019-03-15T08:29:38.534Z,28.33
2019-03-15T08:32:44.284Z,28.03
2019-03-15T08:35:49.860Z,24.73
2019-03-15T08:38:58.057Z,26.73
2019-03-15T08:42:03.440Z,32.97
2019-03-15T08:45:11.352Z,27.07
2019-03-15T08:48:16.603Z,29.50
2019-03-15T08:51:21.894Z,31.57
2019-03-15T08:54:27.196Z,27.60
2019-03-15T08:57:32.493Z,29.47
2019-03-15T09:00:37.852Z,34.97
2019-03-15T09:03:43.267Z,35.53
2019-03-15T09:06:48.553Z,27.90
2019-03-15T09:09:53.827Z,34.03
2019-03-15T09:12:59.139Z,24.70
2019-03-15T09:16:04.402Z,28.60
2019-03-15T09:19:09.686Z,28.20
2019-03-15T09:22:14.969Z,26.70
2019-03-15T09:25:21.090Z,26.40
2019-03-15T09:28:27.077Z,19.23
2019-03-15T09:31:46.581Z,20.00
2019-03-15T09:34:39.507Z,22.77
2019-03-15T09:37:47.914Z,22.40
2019-03-15T09:40:53.382Z,25.97
2019-03-15T09:43:58.658Z,25.80
2019-03-15T09:47:03.931Z,31.93
2019-03-15T09:50:21.165Z,25.90
2019-03-15T09:53:17.615Z,28.63
2019-03-15T09:56:22.878Z,21.00
2019-03-15T09:59:29.133Z,22.80
2019-03-15T10:02:34.402Z,25.70
2019-03-15T10:05:39.722Z,23.57
2019-03-15T10:08:44.987Z,18.50
2019-03-15T10:11:50.247Z,18.77
2019-03-15T10:14:55.477Z,23.00
2019-03-15T10:18:00.904Z,20.13
2019-03-15T10:21:09.117Z,17.83
2019-03-15T10:24:15.735Z,21.17
2019-03-15T10:27:20.172Z,16.93
2019-03-15T10:30:25.423Z,19.07
2019-03-15T10:33:30.776Z,19.17
2019-03-15T10:36:36.077Z,14.90
2019-03-15T10:39:41.318Z,16.50
2019-03-15T10:42:46.591Z,11.70
2019-03-15T10:45:51.901Z,14.70
2019-03-15T10:48:57.182Z,12.23
2019-03-15T10:52:02.437Z,10.70
2019-03-15T10:55:07.885Z,12.80
2019-03-15T10:58:13.150Z,11.37
2019-03-15T11:01:18.377Z,13.00
2019-03-15T11:04:23.643Z,10.93
2019-03-15T11:07:29.843Z,11.10
2019-03-15T11:10:35.203Z,10.57
2019-03-15T11:13:40.447Z,10.17
2019-03-15T11:16:46.728Z,11.50
2019-03-15T11:19:51.948Z,13.00
2019-03-15T11:23:11.763Z,11.00
2019-03-15T11:26:17.125Z,12.60
2019-03-15T11:29:22.440Z,12.03
2019-03-15T11:32:27.676Z,12.07
2019-03-15T11:35:33.083Z,12.97
2019-03-15T11:38:38.357Z,14.30
2019-03-15T11:41:43.652Z,13.80
2019-03-15T11:44:49.025Z,14.17
2019-03-15T11:48:03.397Z,18.27
2019-03-15T11:51:03.515Z,11.33
2019-03-15T11:54:08.847Z,9.77
2019-03-15T11:57:14.106Z,11.83
2019-03-15T12:00:19.428Z,7.90
2019-03-15T12:03:24.714Z,7.60
2019-03-15T12:06:30.046Z,8.07
2019-03-15T12:09:35.379Z,7.80
2019-03-15T12:12:40.707Z,11.83
2019-03-15T12:15:45.961Z,9.20
2019-03-15T12:18:51.310Z,8.00
2019-03-15T12:22:06.113Z,9.10
2019-03-15T12:25:03.898Z,9.13
2019-03-15T12:28:09.167Z,6.63
2019-03-15T12:31:14.465Z,9.43
2019-03-15T12:34:19.783Z,8.83
2019-03-15T12:37:27.884Z,7.03
2019-03-15T12:40:32.117Z,8.73
2019-03-15T12:43:37.423Z,7.83
2019-03-15T12:46:42.712Z,8.77
2019-03-15T12:49:48.106Z,8.30
2019-03-15T12:52:53.433Z,7.80
2019-03-15T12:55:58.752Z,7.80
2019-03-15T12:59:04.152Z,9.00
2019-03-15T13:02:09.482Z,6.20
2019-03-15T13:05:14.952Z,6.53
2019-03-15T13:08:20.235Z,7.17
2019-03-15T13:11:25.518Z,6.40
2019-03-15T13:14:32.876Z,7.40
2019-03-15T13:17:38.144Z,14.73
2019-03-15T13:20:43.411Z,14.37
2019-03-15T13:23:48.711Z,14.37
2019-03-15T13:27:06.649Z,5.67
2019-03-15T13:30:00.973Z,8.73
2019-03-15T13:33:19.174Z,5.03
2019-03-15T13:36:13.358Z,4.70
2019-03-15T13:39:18.627Z,4.80
2019-03-15T13:42:24.015Z,5.93
2019-03-15T13:45:29.248Z,3.03
2019-03-15T13:48:34.495Z,6.20
2019-03-15T13:51:39.727Z,8.23
2019-03-15T13:54:44.972Z,4.00
2019-03-15T13:57:50.219Z,11.27
2019-03-15T14:00:55.477Z,7.20
2019-03-15T14:04:00.731Z,6.20
2019-03-15T14:07:06.013Z,6.57
2019-03-15T14:10:11.658Z,6.67
2019-03-15T14:13:16.990Z,6.13
2019-03-15T14:16:25.893Z,10.00
2019-03-15T14:19:32.388Z,4.87
2019-03-15T14:22:37.698Z,6.10
2019-03-15T14:25:43.200Z,7.37
2019-03-15T14:28:51.261Z,6.97
2019-03-15T14:31:56.536Z,11.70
2019-03-15T14:35:02.942Z,7.23
2019-03-15T14:38:08.456Z,6.93
2019-03-15T14:41:16.068Z,6.87
2019-03-15T14:44:21.633Z,4.60
2019-03-15T14:47:26.974Z,5.13
2019-03-15T14:50:32.345Z,6.87
2019-03-15T14:53:37.571Z,11.37
2019-03-15T14:56:43.818Z,8.70
2019-03-15T14:59:49.056Z,7.80
2019-03-15T15:02:54.387Z,5.57
2019-03-15T15:05:59.669Z,6.47
2019-03-15T15:09:06.685Z,8.80
2019-03-15T15:12:13.517Z,5.30
2019-03-15T15:15:20.368Z,10.50
2019-03-15T15:18:25.654Z,7.77
2019-03-15T15:21:31.030Z,8.60
2019-03-15T15:24:36.473Z,7.90
2019-03-15T15:27:41.905Z,12.80
2019-03-15T15:30:48.157Z,12.13
2019-03-15T15:33:53.466Z,9.83
2019-03-15T15:36:58.796Z,6.60
2019-03-15T15:40:05.181Z,8.37
2019-03-15T15:43:10.641Z,5.10
2019-03-15T15:46:15.922Z,8.33
2019-03-15T15:49:21.192Z,7.40
2019-03-15T15:52:26.651Z,9.20
2019-03-15T15:55:31.976Z,4.07
2019-03-15T15:58:37.316Z,4.47
2019-03-15T16:01:42.647Z,4.17
2019-03-15T16:04:48.027Z,7.17
2019-03-15T16:07:57.923Z,6.00
2019-03-15T16:11:00.502Z,10.07
2019-03-15T16:14:08.870Z,10.37
2019-03-15T16:17:14.227Z,9.77
2019-03-15T16:20:19.707Z,5.17
2019-03-15T16:23:24.955Z,8.43
2019-03-15T16:26:30.203Z,4.97
2019-03-15T16:29:35.499Z,7.30
2019-03-15T16:32:40.847Z,7.20
2019-03-15T16:35:46.176Z,4.03
2019-03-15T16:38:51.492Z,9.60
2019-03-15T16:41:56.845Z,4.50
2019-03-15T16:45:02.155Z,8.73
2019-03-15T16:48:07.429Z,5.90
2019-03-15T16:51:19.406Z,6.17
2019-03-15T16:54:19.780Z,11.10
2019-03-15T16:57:25.126Z,14.13
2019-03-15T17:00:30.464Z,4.17
2019-03-15T17:03:35.806Z,5.33
2019-03-15T17:06:42.167Z,3.10
2019-03-15T17:09:47.458Z,7.33
2019-03-15T17:12:56.038Z,4.57
2019-03-15T17:16:01.403Z,7.97
2019-03-15T17:19:07.802Z,7.77
2019-03-15T17:22:13.126Z,3.90
2019-03-15T17:25:18.414Z,5.43
2019-03-15T17:28:23.669Z,7.63
2019-03-15T17:31:28.930Z,7.63
2019-03-15T17:34:37.364Z,9.57
2019-03-15T17:37:42.658Z,8.73
2019-03-15T17:40:47.971Z,9.00
2019-03-15T17:43:53.286Z,3.53
2019-03-15T17:47:00.149Z,6.90
2019-03-15T17:50:05.970Z,3.87
2019-03-15T17:53:12.254Z,8.90
2019-03-15T17:56:17.704Z,5.57
2019-03-15T17:59:23.035Z,8.27
2019-03-15T18:02:28.267Z,9.97
2019-03-15T18:05:33.625Z,9.80
2019-03-15T18:08:38.939Z,6.47
2019-03-15T18:11:44.230Z,4.10
2019-03-15T18:14:49.591Z,5.73
2019-03-15T18:17:54.865Z,4.07
2019-03-15T18:21:00.169Z,15.33
2019-03-15T18:24:06.434Z,7.67
2019-03-15T18:27:11.789Z,4.33
2019-03-15T18:30:17.126Z,12.53
2019-03-15T18:33:22.371Z,9.70
2019-03-15T18:36:27.628Z,6.47
2019-03-15T18:39:36.531Z,9.63
2019-03-15T18:42:42.025Z,4.30
2019-03-15T18:45:47.512Z,10.10
2019-03-15T18:48:52.791Z,6.37
2019-03-15T18:51:58.131Z,7.57
2019-03-15T18:55:03.483Z,4.10
2019-03-15T18:58:08.811Z,5.83
2019-03-15T19:01:14.095Z,11.03
2019-03-15T19:04:19.377Z,7.90
2019-03-15T19:07:24.664Z,6.87
2019-03-15T19:10:30.024Z,8.07
2019-03-15T19:13:35.269Z,10.87
2019-03-15T19:16:40.612Z,7.10
2019-03-15T19:19:45.952Z,9.70
2019-03-15T19:22:51.219Z,8.37
2019-03-15T19:25:56.585Z,4.20
2019-03-15T19:29:01.891Z,10.93
2019-03-15T19:32:07.170Z,9.50
2019-03-15T19:35:12.434Z,11.20
2019-03-15T19:38:17.735Z,7.17
2019-03-15T19:41:23.015Z,8.13
2019-03-15T19:44:28.384Z,5.00
2019-03-15T19:47:33.668Z,7.40
2019-03-15T19:50:39.003Z,5.53
2019-03-15T19:53:45.360Z,6.60
2019-03-15T19:56:52.808Z,14.23
2019-03-15T20:00:07.671Z,5.30
2019-03-15T20:03:06.051Z,12.13
2019-03-15T20:06:11.615Z,6.87
2019-03-15T20:09:16.940Z,10.97
2019-03-15T20:12:22.229Z,4.27
2019-03-15T20:15:27.529Z,4.50
2019-03-15T20:18:32.968Z,8.60
2019-03-15T20:21:39.325Z,6.63
2019-03-15T20:24:44.661Z,5.87
2019-03-15T20:27:50.139Z,8.83
2019-03-15T20:30:55.454Z,10.47
2019-03-15T20:34:00.858Z,12.03
2019-03-15T20:37:11.058Z,7.53
2019-03-15T20:40:13.384Z,5.47
2019-03-15T20:43:21.715Z,7.00
2019-03-15T20:46:35.747Z,8.60
2019-03-15T20:49:36.496Z,7.93
2019-03-15T20:52:41.106Z,9.73
2019-03-15T20:55:47.080Z,6.50
2019-03-15T20:58:52.702Z,6.67
2019-03-15T21:01:58.000Z,8.07
2019-03-15T21:05:07.781Z,9.60
2019-03-15T21:08:13.217Z,10.67
2019-03-15T21:11:21.485Z,5.27
2019-03-15T21:14:26.775Z,13.93
2019-03-15T21:17:32.253Z,8.67
2019-03-15T21:20:37.488Z,8.70
2019-03-15T21:23:42.892Z,7.70
2019-03-15T21:26:48.186Z,9.50
2019-03-15T21:29:53.539Z,13.63
2019-03-15T21:32:58.791Z,12.87
2019-03-15T21:36:04.171Z,7.73
2019-03-15T21:39:09.977Z,7.90
2019-03-15T21:42:15.542Z,12.90
2019-03-15T21:45:25.644Z,21.53
2019-03-15T21:48:27.834Z,10.77
2019-03-15T21:51:34.051Z,6.67
2019-03-15T21:54:39.373Z,7.10
2019-03-15T21:57:46.624Z,7.00
2019-03-15T22:01:01.654Z,10.23
2019-03-15T22:03:58.640Z,5.90
2019-03-15T22:07:03.948Z,8.20
2019-03-15T22:10:09.964Z,7.43
2019-03-15T22:13:15.275Z,10.23
2019-03-15T22:16:20.543Z,6.73
2019-03-15T22:19:26.909Z,13.33
2019-03-15T22:22:32.214Z,5.63
2019-03-15T22:25:37.509Z,6.70
2019-03-15T22:28:42.824Z,5.60
2019-03-15T22:31:48.103Z,8.20
2019-03-15T22:34:54.931Z,9.03
2019-03-15T22:38:00.186Z,5.80
2019-03-15T22:41:05.813Z,15.63
2019-03-15T22:44:11.543Z,5.83
2019-03-15T22:47:16.805Z,11.07
2019-03-15T22:50:23.709Z,7.27
2019-03-15T22:53:29.155Z,4.70
2019-03-15T22:56:36.789Z,7.80
2019-03-15T22:59:42.066Z,8.10
2019-03-15T23:02:47.682Z,6.77
2019-03-15T23:05:53.048Z,6.70
2019-03-15T23:08:58.348Z,9.70
2019-03-15T23:12:03.768Z,6.20
2019-03-15T23:15:09.259Z,14.40
2019-03-15T23:18:14.623Z,8.60
2019-03-15T23:21:19.894Z,5.80
2019-03-15T23:24:25.260Z,13.50
2019-03-15T23:27:30.561Z,10.23
2019-03-15T23:30:35.898Z,8.57
2019-03-15T23:33:43.490Z,9.33
2019-03-15T23:36:48.790Z,13.23
2019-03-15T23:39:54.019Z,7.60
2019-03-15T23:42:59.400Z,9.27
2019-03-15T23:46:06.268Z,10.93
2019-03-15T23:49:13.919Z,7.00
2019-03-15T23:52:19.190Z,6.73
2019-03-15T23:55:24.523Z,4.20
2019-03-15T23:58:29.809Z,6.07
